Time;durP1;ratioP1;P1;durP2;ratioP2;P2;SDS_P1;SDS_P2;PMS_P1;PMS_P2;Temp;Humidity;BMP_temperature;BMP_pressure;BME280_temperature;BME280_humidity;BME280_pressure;Samples;Min_cycle;Max_cycle;Signal;HPM_P1;HPM_P2
2022/11/17 00:01:00;;;;;;;3.90;3.60;;;;;;;;;;5078002;28;20996;-73
2022/11/17 00:03:50;;;;;;;4.30;4.00;;;;;;;;;;5076054;28;20455;-73
2022/11/17 00:06:39;;;;;;;4.20;3.80;;;;;;;;;;5075208;28;20461;-73
2022/11/17 00:09:35;;;;;;;4.70;4.00;;;;;;;;;;5076288;28;20442;-73
2022/11/17 00:15:36;;;;;;;4.40;4.00;;;;;;;;;;5076959;28;20900;-72
2022/11/17 00:21:41;;;;;;;4.80;3.67;;;;;;;;;;5073748;28;21009;-73
2022/11/17 00:24:30;;;;;;;4.97;4.50;;;;;;;;;;5067659;28;20458;-73
2022/11/17 00:27:20;;;;;;;4.70;4.17;;;;;;;;;;5074519;28;22042;-72
2022/11/17 00:34:03;;;;;;;4.23;3.83;;;;;;;;;;5079295;28;20443;-73
2022/11/17 00:36:28;;;;;;;4.60;4.20;;;;;;;;;;5068393;28;20458;-73
2022/11/17 00:39:18;;;;;;;5.10;4.60;;;;;;;;;;5067442;28;20453;-73
2022/11/17 00:42:10;;;;;;;4.80;4.40;;;;;;;;;;5073058;28;20481;-72
2022/11/17 00:45:02;;;;;;;5.93;5.13;;;;;;;;;;5071550;28;20987;-73
2022/11/17 00:47:59;;;;;;;4.63;4.23;;;;;;;;;;5071616;28;20452;-73
2022/11/17 00:50:50;;;;;;;5.80;4.80;;;;;;;;;;5072311;28;20546;-72
2022/11/17 00:53:44;;;;;;;7.40;5.53;;;;;;;;;;5074142;28;20457;-73
2022/11/17 00:56:33;;;;;;;6.10;5.50;;;;;;;;;;5081076;28;20460;-73
2022/11/17 00:59:26;;;;;;;5.47;4.97;;;;;;;;;;5100703;28;20464;-72
2022/11/17 01:02:17;;;;;;;6.13;5.00;;;;;;;;;;5086696;28;20486;-72
2022/11/17 01:05:10;;;;;;;4.97;4.47;;;;;;;;;;5094151;28;20457;-72
2022/11/17 01:08:13;;;;;;;5.20;4.70;;;;;;;;;;5071735;28;20546;-73
2022/11/17 01:11:12;;;;;;;4.53;4.13;;;;;;;;;;5075902;28;20483;-73
2022/11/17 01:14:07;;;;;;;6.03;5.03;;;;;;;;;;5076301;28;20450;-73
2022/11/17 01:16:56;;;;;;;5.53;5.00;;;;;;;;;;5077228;28;20457;-73
2022/11/17 01:19:49;;;;;;;6.00;5.47;;;;;;;;;;5067197;28;20471;-73
2022/11/17 01:22:42;;;;;;;4.93;4.50;;;;;;;;;;5072673;28;20635;-73
2022/11/17 01:25:31;;;;;;;5.67;5.17;;;;;;;;;;5073310;28;20979;-72
2022/11/17 01:28:21;;;;;;;6.20;5.60;;;;;;;;;;5069817;28;20973;-73
2022/11/17 01:31:13;;;;;;;5.70;5.20;;;;;;;;;;5074869;28;20474;-73
2022/11/17 01:34:03;;;;;;;5.40;4.93;;;;;;;;;;5070303;28;20445;-72
2022/11/17 01:40:05;;;;;;;6.80;6.10;;;;;;;;;;5079809;28;20548;-72
2022/11/17 01:42:53;;;;;;;6.20;5.60;;;;;;;;;;5072232;28;20491;-71
2022/11/17 01:45:46;;;;;;;6.73;6.03;;;;;;;;;;5072267;28;20453;-73
2022/11/17 01:48:36;;;;;;;5.80;5.00;;;;;;;;;;5071616;28;20460;-73
2022/11/17 01:51:25;;;;;;;6.07;5.47;;;;;;;;;;5068122;28;20568;-72
2022/11/17 01:54:16;;;;;;;6.30;4.90;;;;;;;;;;5070682;28;20825;-73
2022/11/17 01:57:12;;;;;;;6.53;5.93;;;;;;;;;;5069967;28;20445;-73
2022/11/17 02:00:02;;;;;;;6.43;5.83;;;;;;;;;;5072755;28;20449;-72
2022/11/17 02:03:00;;;;;;;7.30;6.50;;;;;;;;;;5070839;28;20477;-72
2022/11/17 02:05:54;;;;;;;6.53;5.93;;;;;;;;;;5072852;28;20445;-72
2022/11/17 02:08:46;;;;;;;7.20;6.50;;;;;;;;;;5076052;28;20459;-73
2022/11/17 02:11:39;;;;;;;7.03;6.33;;;;;;;;;;5068264;28;20485;-73
2022/11/17 02:14:29;;;;;;;6.60;6.00;;;;;;;;;;5076607;28;20442;-73
2022/11/17 02:17:24;;;;;;;7.20;6.53;;;;;;;;;;5080551;28;20449;-73
2022/11/17 02:20:22;;;;;;;7.30;6.60;;;;;;;;;;5070188;28;20569;-73
2022/11/17 02:23:18;;;;;;;7.27;6.57;;;;;;;;;;5077135;28;20564;-72
2022/11/17 02:26:21;;;;;;;7.03;6.33;;;;;;;;;;5079877;28;21364;-73
2022/11/17 02:29:15;;;;;;;7.70;7.00;;;;;;;;;;5071062;28;20452;-72
2022/11/17 02:32:06;;;;;;;6.67;5.97;;;;;;;;;;5078564;28;20474;-73
2022/11/17 02:34:57;;;;;;;7.60;6.90;;;;;;;;;;5080622;28;20448;-72
2022/11/17 02:37:53;;;;;;;7.30;6.60;;;;;;;;;;5079176;28;20457;-73
2022/11/17 02:40:46;;;;;;;7.03;6.43;;;;;;;;;;5080989;28;21044;-73
2022/11/17 02:46:47;;;;;;;6.70;5.97;;;;;;;;;;5088326;28;20455;-72
2022/11/17 02:49:39;;;;;;;6.20;5.60;;;;;;;;;;5102760;28;20471;-73
2022/11/17 02:52:28;;;;;;;7.90;7.10;;;;;;;;;;5097318;28;20567;-72
2022/11/17 02:55:16;;;;;;;7.60;6.90;;;;;;;;;;5072935;28;20459;-72
2022/11/17 02:58:13;;;;;;;8.07;6.60;;;;;;;;;;5074612;28;20457;-72
2022/11/17 03:01:20;;;;;;;6.67;6.07;;;;;;;;;;5077583;28;21050;-73
2022/11/17 03:04:21;;;;;;;6.57;5.97;;;;;;;;;;5076317;28;20964;-72
2022/11/17 03:07:25;;;;;;;6.97;5.90;;;;;;;;;;5078707;28;20456;-73
2022/11/17 03:10:21;;;;;;;6.23;5.63;;;;;;;;;;5078225;28;20453;-73
2022/11/17 03:13:13;;;;;;;6.30;5.70;;;;;;;;;;5075109;28;20460;-73
2022/11/17 03:16:07;;;;;;;7.00;6.30;;;;;;;;;;5080952;28;20545;-73
2022/11/17 03:19:01;;;;;;;7.50;6.80;;;;;;;;;;5079428;28;20825;-72
2022/11/17 03:21:59;;;;;;;7.57;6.87;;;;;;;;;;5074188;28;20480;-73
2022/11/17 03:24:53;;;;;;;7.50;6.77;;;;;;;;;;5076115;28;20499;-72
2022/11/17 03:27:45;;;;;;;9.40;7.03;;;;;;;;;;5077863;28;20795;-72
2022/11/17 03:30:38;;;;;;;9.53;6.83;;;;;;;;;;5078093;28;20479;-73
2022/11/17 03:33:39;;;;;;;7.60;6.90;;;;;;;;;;5075962;28;20475;-73
2022/11/17 03:36:31;;;;;;;7.03;6.33;;;;;;;;;;5079383;28;20444;-72
2022/11/17 03:39:24;;;;;;;7.63;6.83;;;;;;;;;;5075164;28;20455;-73
2022/11/17 03:42:17;;;;;;;6.30;5.70;;;;;;;;;;5074119;28;20491;-72
2022/11/17 03:45:11;;;;;;;7.37;6.67;;;;;;;;;;5075868;28;20462;-72
2022/11/17 03:48:25;;;;;;;7.40;6.70;;;;;;;;;;5073701;28;20934;-73
2022/11/17 03:51:19;;;;;;;7.60;6.90;;;;;;;;;;5079077;28;20909;-73
2022/11/17 03:54:09;;;;;;;7.00;6.30;;;;;;;;;;5071116;28;20441;-73
2022/11/17 03:57:06;;;;;;;6.73;6.13;;;;;;;;;;5071935;28;20623;-73
2022/11/17 04:00:01;;;;;;;6.63;6.00;;;;;;;;;;5071033;28;20443;-72
2022/11/17 04:03:00;;;;;;;7.00;6.30;;;;;;;;;;5066111;28;21035;-72
2022/11/17 04:05:48;;;;;;;7.27;6.57;;;;;;;;;;5070545;28;20459;-72
2022/11/17 04:08:39;;;;;;;6.77;6.07;;;;;;;;;;5070037;28;20484;-73
2022/11/17 04:17:50;;;;;;;6.13;5.53;;;;;;;;;;5071365;28;20541;-72
2022/11/17 04:20:38;;;;;;;6.97;6.27;;;;;;;;;;5072876;28;20652;-73
2022/11/17 04:23:28;;;;;;;5.90;4.90;;;;;;;;;;5070904;28;20489;-72
2022/11/17 04:29:30;;;;;;;7.00;6.30;;;;;;;;;;5084087;28;20443;-72
2022/11/17 04:32:24;;;;;;;7.37;6.67;;;;;;;;;;5090756;28;20480;-72
2022/11/17 04:35:16;;;;;;;8.37;6.17;;;;;;;;;;5081892;28;20454;-73
2022/11/17 04:38:08;;;;;;;7.20;6.50;;;;;;;;;;5074834;28;20991;-72
2022/11/17 04:44:26;;;;;;;6.83;6.23;;;;;;;;;;5070809;28;20487;-72
2022/11/17 04:47:16;;;;;;;6.77;6.03;;;;;;;;;;5072614;28;20460;-72
2022/11/17 04:50:11;;;;;;;7.30;6.60;;;;;;;;;;5073492;28;20456;-72
2022/11/17 04:53:01;;;;;;;6.67;6.07;;;;;;;;;;5074025;28;20479;-72
2022/11/17 04:55:50;;;;;;;7.17;6.00;;;;;;;;;;5071687;28;20445;-72
2022/11/17 04:58:40;;;;;;;7.90;7.10;;;;;;;;;;5074001;28;20472;-72
2022/11/17 05:01:30;;;;;;;7.73;6.93;;;;;;;;;;5078090;28;20496;-72
2022/11/17 05:07:24;;;;;;;9.27;6.67;;;;;;;;;;5080406;28;20455;-72
2022/11/17 05:10:13;;;;;;;7.97;6.10;;;;;;;;;;5076836;28;20460;-72
2022/11/17 05:19:19;;;;;;;8.20;7.27;;;;;;;;;;5075188;28;20832;-72
2022/11/17 05:25:24;;;;;;;10.23;7.97;;;;;;;;;;5074396;28;20487;-72
2022/11/17 05:28:18;;;;;;;8.50;7.70;;;;;;;;;;5073423;28;20461;-72
2022/11/17 05:31:10;;;;;;;8.33;7.30;;;;;;;;;;5067893;28;20484;-72
2022/11/17 05:33:59;;;;;;;10.00;8.53;;;;;;;;;;5074156;28;20978;-72
2022/11/17 05:36:50;;;;;;;8.53;7.30;;;;;;;;;;5072641;28;20463;-72
2022/11/17 05:39:38;;;;;;;8.60;7.70;;;;;;;;;;5072625;28;22607;-72
2022/11/17 05:42:28;;;;;;;10.10;8.30;;;;;;;;;;5074525;28;20471;-72
2022/11/17 05:45:18;;;;;;;9.10;8.23;;;;;;;;;;5075228;28;20481;-72
2022/11/17 05:48:07;;;;;;;9.60;8.10;;;;;;;;;;5071040;28;20815;-72
2022/11/17 05:50:56;;;;;;;9.90;8.90;;;;;;;;;;5063113;28;20526;-72
2022/11/17 05:53:50;;;;;;;8.60;7.77;;;;;;;;;;5078438;28;21058;-72
2022/11/17 05:56:40;;;;;;;9.23;8.23;;;;;;;;;;5076883;28;20473;-72
2022/11/17 05:59:36;;;;;;;8.30;7.50;;;;;;;;;;5075748;28;20483;-72
2022/11/17 06:02:32;;;;;;;8.90;8.00;;;;;;;;;;5072733;28;20487;-71
2022/11/17 06:05:24;;;;;;;11.03;8.83;;;;;;;;;;5080024;28;20480;-72
2022/11/17 06:08:15;;;;;;;9.53;8.40;;;;;;;;;;5076604;28;20459;-72
2022/11/17 06:11:04;;;;;;;9.40;8.50;;;;;;;;;;5074821;28;20494;-72
2022/11/17 06:13:58;;;;;;;11.17;8.50;;;;;;;;;;5069057;28;20551;-72
2022/11/17 06:16:55;;;;;;;8.73;7.80;;;;;;;;;;5067866;28;20458;-72
2022/11/17 06:19:47;;;;;;;9.93;8.87;;;;;;;;;;5077686;28;20465;-72
2022/11/17 06:22:36;;;;;;;9.57;8.57;;;;;;;;;;5074880;28;21144;-72
2022/11/17 06:25:27;;;;;;;10.17;8.80;;;;;;;;;;5079470;28;20973;-72
2022/11/17 06:28:24;;;;;;;9.33;8.40;;;;;;;;;;5079131;28;20475;-73
2022/11/17 06:31:19;;;;;;;10.97;9.07;;;;;;;;;;5081038;28;20574;-72
2022/11/17 06:34:09;;;;;;;11.70;9.30;;;;;;;;;;5080990;28;20462;-71
2022/11/17 06:36:58;;;;;;;10.77;9.60;;;;;;;;;;5074929;28;20461;-72
2022/11/17 06:39:46;;;;;;;9.17;8.27;;;;;;;;;;5080939;28;20461;-72
2022/11/17 06:45:42;;;;;;;9.93;8.30;;;;;;;;;;5074875;28;20562;-73
2022/11/17 06:48:34;;;;;;;10.60;9.50;;;;;;;;;;5074582;28;20459;-73
2022/11/17 06:51:28;;;;;;;10.27;9.27;;;;;;;;;;5076605;28;20477;-72
2022/11/17 06:54:18;;;;;;;10.93;9.30;;;;;;;;;;5077903;28;20454;-72
2022/11/17 06:57:17;;;;;;;9.43;8.17;;;;;;;;;;5082576;28;20452;-71
2022/11/17 07:00:08;;;;;;;10.87;9.50;;;;;;;;;;5083560;28;20834;-72
2022/11/17 07:03:04;;;;;;;10.07;8.70;;;;;;;;;;5079038;28;20478;-72
2022/11/17 07:05:52;;;;;;;9.77;8.77;;;;;;;;;;5079227;28;20484;-72
2022/11/17 07:08:47;;;;;;;10.33;9.20;;;;;;;;;;5078630;28;20494;-72
2022/11/17 07:11:41;;;;;;;10.23;9.20;;;;;;;;;;5076203;28;20519;-72
2022/11/17 07:14:34;;;;;;;9.90;9.00;;;;;;;;;;5079405;28;20448;-72
2022/11/17 07:17:33;;;;;;;9.17;8.23;;;;;;;;;;5078352;28;20540;-71
2022/11/17 07:20:24;;;;;;;12.53;8.70;;;;;;;;;;5079765;28;20872;-72
2022/11/17 07:23:19;;;;;;;9.80;8.80;;;;;;;;;;5075176;28;20802;-71
2022/11/17 07:26:14;;;;;;;9.50;8.60;;;;;;;;;;5080867;28;20477;-72
2022/11/17 07:29:05;;;;;;;10.23;9.07;;;;;;;;;;5083777;28;20455;-72
2022/11/17 07:32:00;;;;;;;10.23;9.07;;;;;;;;;;5103245;28;20479;-71
2022/11/17 07:34:50;;;;;;;11.43;9.20;;;;;;;;;;5106481;28;20441;-71
2022/11/17 07:37:41;;;;;;;9.77;8.77;;;;;;;;;;5089733;28;20449;-71
2022/11/17 07:40:35;;;;;;;10.63;9.47;;;;;;;;;;5080775;28;20915;-72
2022/11/17 07:43:43;;;;;;;11.97;10.30;;;;;;;;;;5077593;28;21065;-72
2022/11/17 07:46:36;;;;;;;9.50;8.60;;;;;;;;;;5082022;28;20519;-72
2022/11/17 07:49:28;;;;;;;11.13;9.97;;;;;;;;;;5082104;28;20455;-72
2022/11/17 07:52:22;;;;;;;9.67;8.73;;;;;;;;;;5077924;28;20481;-72
2022/11/17 07:55:13;;;;;;;10.10;9.10;;;;;;;;;;5076732;28;20459;-72
2022/11/17 07:58:06;;;;;;;10.07;9.07;;;;;;;;;;5082190;28;20448;-72
2022/11/17 08:01:00;;;;;;;10.17;8.90;;;;;;;;;;5078692;28;20481;-71
2022/11/17 08:03:53;;;;;;;9.63;8.63;;;;;;;;;;5078665;28;20540;-72
2022/11/17 08:06:50;;;;;;;9.67;8.63;;;;;;;;;;5077270;28;20501;-72
2022/11/17 08:09:42;;;;;;;10.80;8.80;;;;;;;;;;5073204;28;20484;-72
2022/11/17 08:12:37;;;;;;;9.57;8.57;;;;;;;;;;5077132;28;20479;-72
2022/11/17 08:15:33;;;;;;;10.37;9.37;;;;;;;;;;5074241;28;20449;-71
2022/11/17 08:18:23;;;;;;;10.47;9.00;;;;;;;;;;5078589;28;20457;-72
2022/11/17 08:21:13;;;;;;;12.00;9.23;;;;;;;;;;5074451;28;20483;-72
2022/11/17 08:24:04;;;;;;;9.80;8.80;;;;;;;;;;5077562;28;20806;-72
2022/11/17 08:26:54;;;;;;;9.40;8.37;;;;;;;;;;5079530;28;20986;-72
2022/11/17 08:29:50;;;;;;;11.50;8.97;;;;;;;;;;5100046;28;20537;-71
2022/11/17 08:32:39;;;;;;;9.77;8.77;;;;;;;;;;5103568;28;20484;-71
2022/11/17 08:35:38;;;;;;;9.43;8.40;;;;;;;;;;5100630;28;20445;-71
2022/11/17 08:38:28;;;;;;;9.80;8.30;;;;;;;;;;5079474;28;20546;-71
2022/11/17 08:41:20;;;;;;;8.83;7.97;;;;;;;;;;5078901;28;20481;-72
2022/11/17 08:44:18;;;;;;;11.00;8.50;;;;;;;;;;5079412;28;20835;-72
2022/11/17 08:47:08;;;;;;;11.57;9.23;;;;;;;;;;5077676;28;21016;-72
2022/11/17 08:49:57;;;;;;;9.67;8.70;;;;;;;;;;5093288;28;20459;-71
2022/11/17 08:52:49;;;;;;;9.70;8.70;;;;;;;;;;5091608;28;20481;-71
2022/11/17 08:55:38;;;;;;;9.23;8.30;;;;;;;;;;5096773;28;21079;-72
2022/11/17 08:58:38;;;;;;;10.27;8.90;;;;;;;;;;5100018;28;20490;-72
2022/11/17 09:01:33;;;;;;;9.70;8.77;;;;;;;;;;5092995;28;20532;-71
2022/11/17 09:04:22;;;;;;;10.40;8.47;;;;;;;;;;5093634;28;20457;-71
2022/11/17 09:07:17;;;;;;;9.20;8.30;;;;;;;;;;5077818;28;20565;-72
2022/11/17 09:10:23;;;;;;;9.83;8.30;;;;;;;;;;5078867;28;20442;-71
2022/11/17 09:13:18;;;;;;;10.90;8.97;;;;;;;;;;5070098;28;20639;-71
2022/11/17 09:16:16;;;;;;;9.30;8.30;;;;;;;;;;5077631;28;20451;-71
2022/11/17 09:19:04;;;;;;;9.10;8.20;;;;;;;;;;5078128;28;20452;-71
2022/11/17 09:22:02;;;;;;;12.27;9.00;;;;;;;;;;5075879;28;20487;-71
2022/11/17 09:25:02;;;;;;;10.37;8.70;;;;;;;;;;5077544;28;20993;-71
2022/11/17 09:28:00;;;;;;;10.30;8.43;;;;;;;;;;5078458;28;20451;-71
2022/11/17 09:30:52;;;;;;;11.23;9.23;;;;;;;;;;5075041;28;20475;-71
2022/11/17 09:33:40;;;;;;;11.57;9.23;;;;;;;;;;5076594;28;20489;-71
2022/11/17 09:36:29;;;;;;;11.97;9.57;;;;;;;;;;5076392;28;20445;-71
2022/11/17 09:39:25;;;;;;;10.80;9.50;;;;;;;;;;5079349;28;20587;-71
2022/11/17 09:42:16;;;;;;;10.33;9.23;;;;;;;;;;5075263;28;20482;-72
2022/11/17 09:45:12;;;;;;;10.03;8.33;;;;;;;;;;5074817;28;20465;-71
2022/11/17 09:48:04;;;;;;;11.17;8.97;;;;;;;;;;5078633;28;20437;-71
2022/11/17 09:51:18;;;;;;;12.03;10.20;;;;;;;;;;5076083;28;20495;-72
2022/11/17 09:54:16;;;;;;;12.23;10.00;;;;;;;;;;5076706;28;20449;-72
2022/11/17 09:57:09;;;;;;;12.17;9.67;;;;;;;;;;5080680;28;20445;-72
2022/11/17 10:00:18;;;;;;;11.53;10.23;;;;;;;;;;5079062;28;20474;-72
2022/11/17 10:03:15;;;;;;;10.23;9.13;;;;;;;;;;5076363;28;20552;-72
2022/11/17 10:06:05;;;;;;;10.80;9.43;;;;;;;;;;5073651;28;20472;-72
2022/11/17 10:09:17;;;;;;;11.87;9.53;;;;;;;;;;5075599;28;20487;-72
2022/11/17 10:12:18;;;;;;;11.70;9.60;;;;;;;;;;5076605;28;20852;-72
2022/11/17 10:15:24;;;;;;;14.03;10.10;;;;;;;;;;5077181;28;20451;-72
2022/11/17 10:18:18;;;;;;;12.43;10.10;;;;;;;;;;5070237;28;21022;-71
2022/11/17 10:21:13;;;;;;;10.83;9.43;;;;;;;;;;5077178;28;21760;-72
2022/11/17 10:24:01;;;;;;;10.43;8.63;;;;;;;;;;5080618;28;20810;-72
2022/11/17 10:26:52;;;;;;;11.63;9.83;;;;;;;;;;5083890;28;20476;-71
2022/11/17 10:29:43;;;;;;;12.13;9.60;;;;;;;;;;5075074;28;20458;-71
2022/11/17 10:32:35;;;;;;;12.00;9.80;;;;;;;;;;5080818;28;20484;-71
2022/11/17 10:35:44;;;;;;;10.43;9.27;;;;;;;;;;5082876;28;20995;-72
2022/11/17 10:38:35;;;;;;;11.97;10.30;;;;;;;;;;5081781;28;20450;-72
2022/11/17 10:41:27;;;;;;;11.20;10.00;;;;;;;;;;5078513;28;21025;-72
2022/11/17 10:44:22;;;;;;;10.37;9.27;;;;;;;;;;5082986;28;20458;-72
2022/11/17 10:47:26;;;;;;;12.77;10.30;;;;;;;;;;5081663;28;20481;-71
2022/11/17 10:50:26;;;;;;;14.30;10.77;;;;;;;;;;5080496;28;20539;-72
2022/11/17 10:53:33;;;;;;;13.60;10.23;;;;;;;;;;5082364;28;22329;-72
2022/11/17 10:56:34;;;;;;;13.27;10.83;;;;;;;;;;5081944;28;20458;-71
2022/11/17 10:59:28;;;;;;;12.13;10.30;;;;;;;;;;5088309;28;20446;-71
2022/11/17 11:02:38;;;;;;;13.73;10.27;;;;;;;;;;5098216;28;20479;-71
2022/11/17 11:05:27;;;;;;;17.47;11.53;;;;;;;;;;5104194;28;20482;-71
2022/11/17 11:08:21;;;;;;;11.90;10.20;;;;;;;;;;5102093;28;20464;-71
2022/11/17 11:11:22;;;;;;;15.53;11.60;;;;;;;;;;5100655;28;20577;-71
2022/11/17 11:14:31;;;;;;;15.40;10.40;;;;;;;;;;5078506;28;20456;-72
2022/11/17 11:17:24;;;;;;;14.80;11.30;;;;;;;;;;5080693;28;20456;-71
2022/11/17 11:20:19;;;;;;;13.23;10.77;;;;;;;;;;5077602;28;20467;-72
2022/11/17 11:23:17;;;;;;;13.10;10.33;;;;;;;;;;5081219;28;20449;-72
2022/11/17 11:26:13;;;;;;;14.80;11.23;;;;;;;;;;5080740;28;20466;-71
2022/11/17 11:29:14;;;;;;;13.00;10.97;;;;;;;;;;5081652;28;20655;-72
2022/11/17 11:32:15;;;;;;;14.87;11.20;;;;;;;;;;5080471;28;20489;-72
2022/11/17 11:35:14;;;;;;;13.83;10.83;;;;;;;;;;5078441;28;20947;-72
2022/11/17 11:38:16;;;;;;;13.60;10.70;;;;;;;;;;5080001;28;20452;-72
2022/11/17 11:41:11;;;;;;;13.90;10.53;;;;;;;;;;5077366;28;20827;-72
2022/11/17 11:44:10;;;;;;;14.13;10.37;;;;;;;;;;5078845;28;20452;-72
2022/11/17 11:47:03;;;;;;;11.93;10.17;;;;;;;;;;5079562;28;20862;-72
2022/11/17 11:49:56;;;;;;;13.70;11.67;;;;;;;;;;5078882;28;20457;-72
2022/11/17 11:52:49;;;;;;;12.53;11.03;;;;;;;;;;5078768;28;20479;-71
2022/11/17 11:55:41;;;;;;;12.87;10.87;;;;;;;;;;5081422;28;20561;-72
2022/11/17 11:58:32;;;;;;;11.60;9.47;;;;;;;;;;5078181;28;24022;-72
2022/11/17 12:01:24;;;;;;;11.23;9.73;;;;;;;;;;5078192;28;20469;-72
2022/11/17 12:04:20;;;;;;;12.40;10.40;;;;;;;;;;5078429;28;20496;-71
2022/11/17 12:07:14;;;;;;;11.27;9.03;;;;;;;;;;5076281;28;20570;-71
2022/11/17 12:10:09;;;;;;;14.90;10.43;;;;;;;;;;5078789;28;20537;-71
2022/11/17 12:12:58;;;;;;;11.73;10.10;;;;;;;;;;5079063;28;20477;-71
2022/11/17 12:15:49;;;;;;;10.83;8.83;;;;;;;;;;5078053;28;20463;-71
2022/11/17 12:18:40;;;;;;;10.83;9.73;;;;;;;;;;5092355;28;20456;-70
2022/11/17 12:21:37;;;;;;;11.77;9.50;;;;;;;;;;5097767;28;20503;-71
2022/11/17 12:24:34;;;;;;;11.97;9.27;;;;;;;;;;5082587;28;20469;-71
2022/11/17 12:27:37;;;;;;;12.20;10.90;;;;;;;;;;5074965;28;20476;-71
2022/11/17 12:30:44;;;;;;;12.60;9.70;;;;;;;;;;5073944;28;20827;-71
2022/11/17 12:33:52;;;;;;;10.90;9.47;;;;;;;;;;5054828;28;20446;-71
2022/11/17 12:36:43;;;;;;;10.37;8.87;;;;;;;;;;5070212;28;20950;-70
2022/11/17 12:39:57;;;;;;;12.33;9.97;;;;;;;;;;5071273;28;20467;-71
2022/11/17 12:43:04;;;;;;;12.47;9.60;;;;;;;;;;5077696;28;20578;-71
2022/11/17 12:46:02;;;;;;;12.90;10.83;;;;;;;;;;5075513;28;21504;-71
2022/11/17 12:49:02;;;;;;;12.17;9.37;;;;;;;;;;5073604;28;20480;-70
2022/11/17 12:51:56;;;;;;;11.63;10.10;;;;;;;;;;5072080;28;20484;-71
2022/11/17 12:54:55;;;;;;;12.80;9.67;;;;;;;;;;5077432;28;20458;-71
2022/11/17 12:57:55;;;;;;;13.87;10.63;;;;;;;;;;5073855;28;20970;-71
2022/11/17 13:00:54;;;;;;;13.07;10.97;;;;;;;;;;5066898;28;20484;-70
2022/11/17 13:03:46;;;;;;;12.77;9.77;;;;;;;;;;5069056;28;20793;-70
2022/11/17 13:06:34;;;;;;;13.80;10.43;;;;;;;;;;5074045;28;20492;-71
2022/11/17 13:09:28;;;;;;;13.10;10.50;;;;;;;;;;5077092;28;20493;-72
2022/11/17 13:12:22;;;;;;;12.57;9.53;;;;;;;;;;5072586;28;20473;-71
2022/11/17 13:15:23;;;;;;;13.53;10.60;;;;;;;;;;5078719;28;20438;-71
2022/11/17 13:18:18;;;;;;;15.07;10.93;;;;;;;;;;5076064;28;20528;-70
2022/11/17 13:21:16;;;;;;;15.67;11.27;;;;;;;;;;5076925;28;20472;-72
2022/11/17 13:24:10;;;;;;;13.87;10.80;;;;;;;;;;5079460;28;20451;-71
2022/11/17 13:27:07;;;;;;;15.43;11.03;;;;;;;;;;5075305;28;20891;-71
2022/11/17 13:30:16;;;;;;;15.67;10.73;;;;;;;;;;5077221;28;20455;-71
2022/11/17 13:33:14;;;;;;;14.33;10.67;;;;;;;;;;5073174;28;20846;-73
2022/11/17 13:36:17;;;;;;;14.53;11.23;;;;;;;;;;5073409;28;20985;-72
2022/11/17 13:39:18;;;;;;;13.20;10.60;;;;;;;;;;5079411;28;20460;-72
2022/11/17 13:42:18;;;;;;;12.70;10.47;;;;;;;;;;5078211;28;20816;-74
2022/11/17 13:45:14;;;;;;;13.30;11.03;;;;;;;;;;5077811;28;21069;-74
2022/11/17 13:48:07;;;;;;;13.63;10.73;;;;;;;;;;5087368;28;20464;-74
2022/11/17 13:51:15;;;;;;;12.30;10.23;;;;;;;;;;5082246;28;20530;-75
2022/11/17 13:54:08;;;;;;;12.90;9.90;;;;;;;;;;5082606;28;20990;-74
2022/11/17 13:57:06;;;;;;;12.80;10.13;;;;;;;;;;5082371;28;20455;-74
2022/11/17 13:59:55;;;;;;;13.10;10.80;;;;;;;;;;5086213;28;20445;-74
2022/11/17 14:02:53;;;;;;;14.53;10.13;;;;;;;;;;5080332;28;20483;-73
2022/11/17 14:05:56;;;;;;;13.10;10.13;;;;;;;;;;5080697;28;20488;-74
2022/11/17 14:09:03;;;;;;;11.93;10.23;;;;;;;;;;5079607;28;20463;-72
2022/11/17 14:11:54;;;;;;;12.30;10.13;;;;;;;;;;5078665;28;20476;-72
2022/11/17 14:14:45;;;;;;;13.43;10.93;;;;;;;;;;5083166;28;20468;-72
2022/11/17 14:17:39;;;;;;;14.13;10.80;;;;;;;;;;5079817;28;20450;-72
2022/11/17 14:20:32;;;;;;;14.80;10.70;;;;;;;;;;5079794;28;20471;-72
2022/11/17 14:23:27;;;;;;;13.10;10.30;;;;;;;;;;5073935;28;20446;-71
2022/11/17 14:26:21;;;;;;;12.37;9.53;;;;;;;;;;5075148;28;20457;-72
2022/11/17 14:29:24;;;;;;;11.83;9.90;;;;;;;;;;5075390;28;20541;-71
2022/11/17 14:32:15;;;;;;;13.50;10.10;;;;;;;;;;5067916;28;20484;-71
2022/11/17 14:35:05;;;;;;;13.70;10.63;;;;;;;;;;5083875;28;20448;-71
2022/11/17 14:37:53;;;;;;;11.13;9.10;;;;;;;;;;5081263;28;20967;-71
2022/11/17 14:40:43;;;;;;;12.00;10.50;;;;;;;;;;5081190;28;20469;-71
2022/11/17 14:43:41;;;;;;;12.87;10.37;;;;;;;;;;5076648;28;20537;-72
2022/11/17 14:46:31;;;;;;;10.97;9.40;;;;;;;;;;5080439;28;20456;-71
2022/11/17 14:49:20;;;;;;;13.93;10.07;;;;;;;;;;5080481;28;20512;-71
2022/11/17 14:52:09;;;;;;;13.10;9.60;;;;;;;;;;5081244;28;21135;-71
2022/11/17 14:55:01;;;;;;;12.17;9.53;;;;;;;;;;5103114;28;20466;-72
2022/11/17 14:57:54;;;;;;;13.13;10.20;;;;;;;;;;5109973;28;20462;-71
2022/11/17 15:00:44;;;;;;;12.20;9.57;;;;;;;;;;5107895;28;20464;-72
2022/11/17 15:03:34;;;;;;;11.13;9.17;;;;;;;;;;5111116;28;20468;-72
2022/11/17 15:06:29;;;;;;;12.97;10.17;;;;;;;;;;5110625;28;20456;-71
2022/11/17 15:09:20;;;;;;;10.83;8.20;;;;;;;;;;5113651;28;20874;-70
2022/11/17 15:12:08;;;;;;;12.43;9.90;;;;;;;;;;5106302;28;20479;-71
2022/11/17 15:14:58;;;;;;;12.30;9.23;;;;;;;;;;5109618;28;20441;-72
2022/11/17 15:17:53;;;;;;;12.33;9.40;;;;;;;;;;5104768;28;20469;-72
2022/11/17 15:20:47;;;;;;;12.80;9.97;;;;;;;;;;5101497;28;20462;-71
2022/11/17 15:23:38;;;;;;;11.63;9.10;;;;;;;;;;5099924;28;20461;-72
2022/11/17 15:26:30;;;;;;;11.33;8.77;;;;;;;;;;5103410;28;20519;-71
2022/11/17 15:29:26;;;;;;;12.23;9.80;;;;;;;;;;5101341;28;20491;-71
2022/11/17 15:32:19;;;;;;;10.60;9.10;;;;;;;;;;5082583;28;20479;-72
2022/11/17 15:35:11;;;;;;;11.07;8.60;;;;;;;;;;5082651;28;20994;-71
2022/11/17 15:38:01;;;;;;;11.17;8.73;;;;;;;;;;5089768;28;20858;-71
2022/11/17 15:40:53;;;;;;;10.57;8.90;;;;;;;;;;5088671;28;20475;-71
2022/11/17 15:43:45;;;;;;;10.07;8.13;;;;;;;;;;5080812;28;20449;-73
2022/11/17 15:46:39;;;;;;;10.20;8.40;;;;;;;;;;5073523;28;20466;-71
2022/11/17 15:49:36;;;;;;;11.80;8.53;;;;;;;;;;5079025;28;20549;-71
2022/11/17 15:52:26;;;;;;;10.87;7.90;;;;;;;;;;5079953;28;20485;-71
2022/11/17 15:55:40;;;;;;;14.23;9.90;;;;;;;;;;5079692;28;20448;-72
2022/11/17 15:58:36;;;;;;;9.53;8.37;;;;;;;;;;5080824;28;20972;-71
2022/11/17 16:01:33;;;;;;;11.00;8.73;;;;;;;;;;5075328;28;20506;-71
2022/11/17 16:04:27;;;;;;;10.60;8.50;;;;;;;;;;5076291;28;20448;-71
2022/11/17 16:07:22;;;;;;;11.47;8.77;;;;;;;;;;5079616;28;20460;-71
2022/11/17 16:10:20;;;;;;;11.37;8.60;;;;;;;;;;5081169;28;20633;-71
2022/11/17 16:13:10;;;;;;;11.83;8.80;;;;;;;;;;5078634;28;20500;-72
2022/11/17 16:16:12;;;;;;;11.07;8.10;;;;;;;;;;5076520;28;20471;-71
2022/11/17 16:19:07;;;;;;;9.53;8.17;;;;;;;;;;5078181;28;20805;-72
2022/11/17 16:21:57;;;;;;;11.50;8.40;;;;;;;;;;5078813;28;20487;-71
2022/11/17 16:24:52;;;;;;;11.33;8.50;;;;;;;;;;5078441;28;20851;-71
2022/11/17 16:27:55;;;;;;;10.50;8.10;;;;;;;;;;5079684;28;20468;-72
2022/11/17 16:30:46;;;;;;;10.23;8.30;;;;;;;;;;5075454;28;20478;-71
2022/11/17 16:33:40;;;;;;;9.53;7.97;;;;;;;;;;5077537;28;20463;-72
2022/11/17 16:36:33;;;;;;;9.00;7.80;;;;;;;;;;5075463;28;20461;-71
2022/11/17 16:39:24;;;;;;;10.50;8.53;;;;;;;;;;5077506;28;20454;-71
2022/11/17 16:42:14;;;;;;;8.83;7.13;;;;;;;;;;5075517;28;20475;-71
2022/11/17 16:45:03;;;;;;;9.70;7.10;;;;;;;;;;5079842;28;20458;-72
2022/11/17 16:47:54;;;;;;;9.50;7.57;;;;;;;;;;5079109;28;21481;-72
2022/11/17 16:50:45;;;;;;;9.00;7.33;;;;;;;;;;5079008;28;20477;-71
2022/11/17 16:53:34;;;;;;;9.70;7.50;;;;;;;;;;5077718;28;20468;-71
2022/11/17 16:56:24;;;;;;;10.90;8.47;;;;;;;;;;5080798;28;20944;-71
2022/11/17 16:59:20;;;;;;;10.10;7.93;;;;;;;;;;5087408;28;20452;-71
2022/11/17 17:02:12;;;;;;;9.50;7.20;;;;;;;;;;5102707;28;20524;-71
2022/11/17 17:05:06;;;;;;;10.70;7.73;;;;;;;;;;5100884;28;20503;-73
2022/11/17 17:08:06;;;;;;;9.10;7.70;;;;;;;;;;5076262;28;21349;-71
2022/11/17 17:10:55;;;;;;;10.07;8.20;;;;;;;;;;5080282;28;20494;-71
2022/11/17 17:13:45;;;;;;;10.20;7.70;;;;;;;;;;5095129;28;20457;-71
2022/11/17 17:16:38;;;;;;;10.70;8.83;;;;;;;;;;5083189;28;20449;-71
2022/11/17 17:19:29;;;;;;;12.57;8.67;;;;;;;;;;5092128;28;20458;-71
2022/11/17 17:22:22;;;;;;;11.33;8.40;;;;;;;;;;5096582;28;20515;-72
2022/11/17 17:25:14;;;;;;;14.40;7.70;;;;;;;;;;5081168;28;20464;-71
2022/11/17 17:28:02;;;;;;;12.17;8.63;;;;;;;;;;5089163;28;20473;-71
2022/11/17 17:30:56;;;;;;;11.30;8.70;;;;;;;;;;5091390;28;20483;-71
2022/11/17 17:33:58;;;;;;;10.97;8.20;;;;;;;;;;5099752;28;20447;-71
2022/11/17 17:36:51;;;;;;;11.30;8.13;;;;;;;;;;5095278;28;20445;-71
2022/11/17 17:39:40;;;;;;;10.13;8.17;;;;;;;;;;5094328;28;20447;-71
2022/11/17 17:42:30;;;;;;;12.70;9.40;;;;;;;;;;5101321;28;20489;-71
2022/11/17 17:45:25;;;;;;;10.00;8.43;;;;;;;;;;5082566;28;20552;-71
2022/11/17 17:48:14;;;;;;;13.20;9.43;;;;;;;;;;5069003;28;20540;-71
2022/11/17 17:51:10;;;;;;;11.47;9.00;;;;;;;;;;5074801;28;20867;-71
2022/11/17 17:54:03;;;;;;;10.83;8.83;;;;;;;;;;5073856;28;21291;-71
2022/11/17 17:56:57;;;;;;;12.40;9.23;;;;;;;;;;5073315;28;20460;-72